createdAt,value
2018-08-30T00:01:18.144Z,12.10
2018-08-30T00:03:53.044Z,12.60
2018-08-30T00:06:28.257Z,12.00
2018-08-30T00:09:03.057Z,11.03
2018-08-30T00:11:37.825Z,12.20
2018-08-30T00:14:12.689Z,13.10
2018-08-30T00:16:47.772Z,11.83
2018-08-30T00:19:22.582Z,12.20
2018-08-30T00:21:57.292Z,13.60
2018-08-30T00:24:32.207Z,11.53
2018-08-30T00:27:07.536Z,11.40
2018-08-30T00:29:42.317Z,12.63
2018-08-30T00:32:17.293Z,10.23
2018-08-30T00:34:52.285Z,11.20
2018-08-30T00:37:27.092Z,13.63
2018-08-30T00:40:04.791Z,14.67
2018-08-30T00:42:39.523Z,11.50
2018-08-30T00:45:14.444Z,15.30
2018-08-30T00:47:49.831Z,12.33
2018-08-30T00:50:24.644Z,12.77
2018-08-30T00:52:59.269Z,11.00
2018-08-30T00:55:34.023Z,12.50
2018-08-30T00:58:08.790Z,11.33
2018-08-30T01:00:43.572Z,15.73
2018-08-30T01:03:18.304Z,12.70
2018-08-30T01:05:53.113Z,10.63
2018-08-30T01:08:28.324Z,11.10
2018-08-30T01:11:02.942Z,15.13
2018-08-30T01:13:38.072Z,11.10
2018-08-30T01:16:12.897Z,12.10
2018-08-30T01:18:47.648Z,24.17
2018-08-30T01:21:22.523Z,11.17
2018-08-30T01:23:57.290Z,12.30
2018-08-30T01:26:32.085Z,13.73
2018-08-30T01:29:06.887Z,12.30
2018-08-30T01:31:41.705Z,16.93
2018-08-30T01:34:16.682Z,14.73
2018-08-30T01:36:51.524Z,17.13
2018-08-30T01:39:26.193Z,15.90
2018-08-30T01:42:01.029Z,15.33
2018-08-30T01:44:35.773Z,15.87
2018-08-30T01:47:10.560Z,18.23
2018-08-30T01:49:45.440Z,13.20
2018-08-30T01:52:20.436Z,19.23
2018-08-30T01:54:55.452Z,16.20
2018-08-30T01:57:30.078Z,16.33
2018-08-30T02:00:05.348Z,18.03
2018-08-30T02:02:40.181Z,17.20
2018-08-30T02:05:14.956Z,17.23
2018-08-30T02:07:49.661Z,20.87
2018-08-30T02:10:24.644Z,13.23
2018-08-30T02:12:59.557Z,17.20
2018-08-30T02:15:34.591Z,20.53
2018-08-30T02:18:09.479Z,20.17
2018-08-30T02:20:44.343Z,17.23
2018-08-30T02:23:19.224Z,27.63
2018-08-30T02:25:54.077Z,23.50
2018-08-30T02:28:28.945Z,25.97
2018-08-30T02:31:03.972Z,22.97
2018-08-30T02:33:39.263Z,26.87
2018-08-30T02:36:14.092Z,21.40
2018-08-30T02:38:48.957Z,23.50
2018-08-30T02:41:23.717Z,21.90
2018-08-30T02:43:58.617Z,26.50
2018-08-30T02:46:33.871Z,26.37
2018-08-30T02:49:08.698Z,27.90
2018-08-30T02:51:44.177Z,30.57
2018-08-30T02:54:19.113Z,29.83
2018-08-30T02:56:54.227Z,34.63
2018-08-30T02:59:28.963Z,32.87
2018-08-30T03:02:03.764Z,31.77
2018-08-30T03:04:38.793Z,32.47
2018-08-30T03:07:13.859Z,30.13
2018-08-30T03:09:48.721Z,35.20
2018-08-30T03:12:23.577Z,22.70
2018-08-30T03:15:05.736Z,31.90
2018-08-30T03:17:40.540Z,36.00
2018-08-30T03:20:15.477Z,37.33
2018-08-30T03:22:50.446Z,37.20
2018-08-30T03:25:25.442Z,33.93
2018-08-30T03:28:00.445Z,29.60
2018-08-30T03:30:35.239Z,30.27
2018-08-30T03:33:09.982Z,28.00
2018-08-30T03:35:45.163Z,43.23
2018-08-30T03:38:19.935Z,43.10
2018-08-30T03:40:54.795Z,35.47
2018-08-30T03:43:29.699Z,37.23
2018-08-30T03:46:04.469Z,34.00
2018-08-30T03:48:39.240Z,33.97
2018-08-30T03:51:14.085Z,44.83
2018-08-30T03:53:49.075Z,29.40
2018-08-30T03:56:24.141Z,41.60
2018-08-30T03:58:59.152Z,41.30
2018-08-30T04:01:34.029Z,39.53
2018-08-30T04:04:09.067Z,41.03
2018-08-30T04:06:43.907Z,45.23
2018-08-30T04:09:19.000Z,42.27
2018-08-30T04:11:53.888Z,45.03
2018-08-30T04:14:28.885Z,39.23
2018-08-30T04:17:04.031Z,43.47
2018-08-30T04:19:38.980Z,49.13
2018-08-30T04:22:13.766Z,33.57
2018-08-30T04:24:48.583Z,45.17
2018-08-30T04:27:23.552Z,32.63
2018-08-30T04:29:58.273Z,49.00
2018-08-30T04:32:33.125Z,46.70
2018-08-30T04:35:07.900Z,44.13
2018-08-30T04:37:42.576Z,51.03
2018-08-30T04:40:17.421Z,34.50
2018-08-30T04:42:52.284Z,51.17
2018-08-30T04:45:27.021Z,53.20
2018-08-30T04:48:01.688Z,40.00
2018-08-30T04:50:36.398Z,55.03
2018-08-30T04:53:11.181Z,37.57
2018-08-30T04:55:45.908Z,31.93
2018-08-30T04:58:21.047Z,46.17
2018-08-30T05:00:55.844Z,27.87
2018-08-30T05:03:31.064Z,46.47
2018-08-30T05:06:06.072Z,67.10
2018-08-30T05:08:40.704Z,33.67
2018-08-30T05:11:15.764Z,35.27
2018-08-30T05:13:50.945Z,35.57
2018-08-30T05:16:25.828Z,33.83
2018-08-30T05:19:00.716Z,32.30
2018-08-30T05:21:36.240Z,33.37
2018-08-30T05:24:10.952Z,41.17
2018-08-30T05:26:45.677Z,51.93
2018-08-30T05:29:20.751Z,41.70
2018-08-30T05:31:55.803Z,41.83
2018-08-30T05:34:30.604Z,53.47
2018-08-30T05:37:05.905Z,48.33
2018-08-30T05:39:40.952Z,73.03
2018-08-30T05:42:15.891Z,42.97
2018-08-30T05:44:50.920Z,40.30
2018-08-30T05:47:25.953Z,37.47
2018-08-30T05:50:01.104Z,30.03
2018-08-30T05:52:36.132Z,32.73
2018-08-30T05:55:11.168Z,37.87
2018-08-30T05:57:46.081Z,32.77
2018-08-30T06:00:21.002Z,34.47
2018-08-30T06:02:55.894Z,35.00
2018-08-30T06:05:30.860Z,53.80
2018-08-30T06:08:05.836Z,68.00
2018-08-30T06:10:40.701Z,31.50
2018-08-30T06:13:15.357Z,42.40
2018-08-30T06:15:50.204Z,38.73
2018-08-30T06:18:25.347Z,33.30
2018-08-30T06:21:00.101Z,45.30
2018-08-30T06:23:35.031Z,36.67
2018-08-30T06:26:09.883Z,41.53
2018-08-30T06:28:44.989Z,42.47
2018-08-30T06:31:19.753Z,41.77
2018-08-30T06:33:54.545Z,34.60
2018-08-30T06:36:29.403Z,34.07
2018-08-30T06:39:05.352Z,34.47
2018-08-30T06:41:40.084Z,44.50
2018-08-30T06:44:14.920Z,35.60
2018-08-30T06:46:49.937Z,37.23
2018-08-30T06:49:24.856Z,36.33
2018-08-30T06:51:59.705Z,89.47
2018-08-30T06:54:34.694Z,37.87
2018-08-30T06:57:12.758Z,27.63
2018-08-30T06:59:47.825Z,33.87
2018-08-30T07:02:22.950Z,36.30
2018-08-30T07:04:57.916Z,51.10
2018-08-30T07:07:32.790Z,33.87
2018-08-30T07:10:08.316Z,36.37
2018-08-30T07:12:43.332Z,22.30
2018-08-30T07:15:18.389Z,26.50
2018-08-30T07:17:54.942Z,34.97
2018-08-30T07:20:29.733Z,22.93
2018-08-30T07:23:06.199Z,32.90
2018-08-30T07:25:41.226Z,28.43
2018-08-30T07:28:17.003Z,24.67
2018-08-30T07:30:51.885Z,25.97
2018-08-30T07:33:26.780Z,25.73
2018-08-30T07:36:02.020Z,28.37
2018-08-30T07:38:37.072Z,26.20
2018-08-30T07:41:12.073Z,22.90
2018-08-30T07:43:46.751Z,29.00
2018-08-30T07:46:21.440Z,22.13
2018-08-30T07:48:56.382Z,26.97
2018-08-30T07:51:31.148Z,30.10
2018-08-30T07:54:06.345Z,24.57
2018-08-30T07:56:41.393Z,50.27
2018-08-30T07:59:16.020Z,27.23
2018-08-30T08:01:51.750Z,36.13
2018-08-30T08:04:27.423Z,27.77
2018-08-30T08:07:02.649Z,19.10
2018-08-30T08:09:37.553Z,17.30
2018-08-30T08:12:13.454Z,19.50
2018-08-30T08:14:48.700Z,21.43
2018-08-30T08:17:24.513Z,22.57
2018-08-30T08:20:00.278Z,25.27
2018-08-30T08:22:35.396Z,19.87
2018-08-30T08:25:10.232Z,19.80
2018-08-30T08:27:45.105Z,20.43
2018-08-30T08:30:20.292Z,19.60
2018-08-30T08:32:55.252Z,18.87
2018-08-30T08:35:31.549Z,27.13
2018-08-30T08:38:06.307Z,17.20
2018-08-30T08:40:41.051Z,28.43
2018-08-30T08:43:16.104Z,23.87
2018-08-30T08:45:51.052Z,33.37
2018-08-30T08:48:25.968Z,22.70
2018-08-30T08:51:00.729Z,22.80
2018-08-30T08:53:35.794Z,28.77
2018-08-30T08:56:10.609Z,35.23
2018-08-30T08:58:45.475Z,23.90
2018-08-30T09:01:20.661Z,20.57
2018-08-30T09:03:55.738Z,19.00
2018-08-30T09:06:30.708Z,18.00
2018-08-30T09:09:08.419Z,29.07
2018-08-30T09:11:43.720Z,19.27
2018-08-30T09:14:18.831Z,20.60
2018-08-30T09:16:53.947Z,31.13
2018-08-30T09:19:28.844Z,14.33
2018-08-30T09:22:03.752Z,12.50
2018-08-30T09:24:38.466Z,11.97
2018-08-30T09:27:13.803Z,7.93
2018-08-30T09:29:49.011Z,11.17
2018-08-30T09:32:23.857Z,8.00
2018-08-30T09:34:58.905Z,7.73
2018-08-30T09:37:33.801Z,9.67
2018-08-30T09:40:08.569Z,9.00
2018-08-30T09:42:43.338Z,10.20
2018-08-30T09:45:18.121Z,10.00
2018-08-30T09:47:52.911Z,12.07
2018-08-30T09:50:27.811Z,13.20
2018-08-30T09:53:02.530Z,15.53
2018-08-30T09:55:37.632Z,12.13
2018-08-30T09:58:12.647Z,10.70
2018-08-30T10:02:56.483Z,11.43
2018-08-30T10:05:31.447Z,12.40
2018-08-30T10:08:06.331Z,9.70
2018-08-30T10:10:41.203Z,8.37
2018-08-30T10:13:15.949Z,8.83
2018-08-30T10:15:50.932Z,9.17
2018-08-30T10:18:26.263Z,11.50
2018-08-30T10:21:01.256Z,7.35
2018-08-30T10:23:35.953Z,6.42
2018-08-30T10:26:10.822Z,8.30
2018-08-30T10:28:45.958Z,6.97
2018-08-30T10:31:20.755Z,7.20
2018-08-30T10:33:55.928Z,5.30
2018-08-30T10:36:31.002Z,5.78
2018-08-30T10:39:07.671Z,5.43
2018-08-30T10:41:42.344Z,4.75
2018-08-30T10:44:17.077Z,4.00
2018-08-30T10:46:51.896Z,3.58
2018-08-30T10:49:27.017Z,3.70
2018-08-30T10:52:01.905Z,4.10
2018-08-30T10:54:37.050Z,3.12
2018-08-30T10:57:11.835Z,4.50
2018-08-30T10:59:46.911Z,5.00
2018-08-30T11:02:22.212Z,6.58
2018-08-30T11:04:57.017Z,7.00
2018-08-30T11:07:32.005Z,7.15
2018-08-30T11:10:07.188Z,8.73
2018-08-30T11:12:42.222Z,10.30
2018-08-30T11:15:17.183Z,10.95
2018-08-30T11:17:52.783Z,17.52
2018-08-30T11:20:27.978Z,14.85
2018-08-30T11:23:02.969Z,13.70
2018-08-30T11:25:37.818Z,12.13
2018-08-30T11:28:12.596Z,13.60
2018-08-30T11:30:47.475Z,13.73
2018-08-30T11:33:22.749Z,16.15
2018-08-30T11:35:58.025Z,15.98
2018-08-30T11:38:33.104Z,17.15
2018-08-30T11:41:08.145Z,19.35
2018-08-30T11:43:43.272Z,24.35
2018-08-30T11:46:18.193Z,18.65
2018-08-30T11:48:53.525Z,18.77
2018-08-30T11:51:28.288Z,20.75
2018-08-30T11:54:03.367Z,20.70
2018-08-30T11:56:38.453Z,19.20
2018-08-30T11:59:13.364Z,21.93
2018-08-30T12:01:48.105Z,19.40
2018-08-30T12:04:22.892Z,19.23
2018-08-30T12:06:57.898Z,19.82
2018-08-30T12:09:32.657Z,23.45
2018-08-30T12:12:07.518Z,21.20
2018-08-30T12:14:42.326Z,18.20
2018-08-30T12:17:17.118Z,16.52
2018-08-30T12:19:51.956Z,16.32
2018-08-30T12:22:26.946Z,16.42
2018-08-30T12:25:01.616Z,21.55
2018-08-30T12:27:36.480Z,16.55
2018-08-30T12:30:11.540Z,19.05
2018-08-30T12:32:46.440Z,13.50
2018-08-30T12:35:21.372Z,16.87
2018-08-30T12:37:56.343Z,14.10
2018-08-30T12:40:31.184Z,13.32
2018-08-30T12:43:06.764Z,10.55
2018-08-30T12:45:41.967Z,13.80
2018-08-30T12:48:16.811Z,11.50
2018-08-30T12:50:51.926Z,13.93
2018-08-30T12:53:26.959Z,11.93
2018-08-30T12:56:02.173Z,10.53
2018-08-30T12:58:36.993Z,11.43
2018-08-30T13:01:14.551Z,10.53
2018-08-30T13:03:49.709Z,11.25
2018-08-30T13:06:24.747Z,9.85
2018-08-30T13:08:59.763Z,8.85
2018-08-30T13:11:34.801Z,10.45
2018-08-30T13:14:10.039Z,9.50
2018-08-30T13:16:44.739Z,8.08
2018-08-30T13:19:19.858Z,9.35
2018-08-30T13:21:55.216Z,9.05
2018-08-30T13:24:30.136Z,9.73
2018-08-30T13:27:04.991Z,9.90
2018-08-30T13:29:39.670Z,9.65
2018-08-30T13:32:14.723Z,10.93
2018-08-30T13:34:49.472Z,12.13
2018-08-30T13:37:24.278Z,12.13
2018-08-30T13:39:59.410Z,16.07
2018-08-30T13:42:34.389Z,13.40
2018-08-30T13:45:10.023Z,16.57
2018-08-30T13:47:45.534Z,17.80
2018-08-30T13:50:20.629Z,14.65
2018-08-30T13:52:55.301Z,24.25
2018-08-30T13:55:30.517Z,18.92
2018-08-30T13:58:05.757Z,17.62
2018-08-30T14:00:41.443Z,19.42
2018-08-30T14:03:16.437Z,17.87
2018-08-30T14:05:51.650Z,18.12
2018-08-30T14:08:26.582Z,20.95
2018-08-30T14:11:01.726Z,20.60
2018-08-30T14:13:36.482Z,18.12
2018-08-30T14:16:11.766Z,20.82
2018-08-30T14:18:46.585Z,16.23
2018-08-30T14:21:21.251Z,20.27
2018-08-30T14:23:56.152Z,22.75
2018-08-30T14:26:31.188Z,22.17
2018-08-30T14:29:06.345Z,20.88
2018-08-30T14:31:41.613Z,23.55
2018-08-30T14:34:16.481Z,21.02
2018-08-30T14:36:51.421Z,25.23
2018-08-30T14:39:26.340Z,18.98
2018-08-30T14:42:01.341Z,19.45
2018-08-30T14:44:36.208Z,18.35
2018-08-30T14:47:11.334Z,18.70
2018-08-30T14:49:46.503Z,15.63
2018-08-30T14:52:21.361Z,23.12
2018-08-30T14:54:56.437Z,18.02
2018-08-30T14:57:31.438Z,17.57
2018-08-30T15:00:06.528Z,18.15
2018-08-30T15:02:41.557Z,17.00
2018-08-30T15:05:16.753Z,17.30
2018-08-30T15:07:51.676Z,19.65
2018-08-30T15:10:26.553Z,17.42
2018-08-30T15:13:01.612Z,11.90
2018-08-30T15:15:36.276Z,14.73
2018-08-30T15:18:11.064Z,11.38
2018-08-30T15:20:46.025Z,20.17
2018-08-30T15:23:20.913Z,13.32
2018-08-30T15:25:55.837Z,17.98
2018-08-30T15:28:30.922Z,15.83
2018-08-30T15:31:05.963Z,11.05
2018-08-30T15:33:40.660Z,23.57
2018-08-30T15:36:15.676Z,19.00
2018-08-30T15:38:50.781Z,17.57
2018-08-30T15:41:25.603Z,10.70
2018-08-30T15:44:00.413Z,12.37
2018-08-30T15:46:35.019Z,11.43
2018-08-30T15:49:09.861Z,15.10
2018-08-30T15:51:44.849Z,16.97
2018-08-30T15:54:19.681Z,12.73
2018-08-30T15:56:54.397Z,20.95
2018-08-30T15:59:29.482Z,15.90
2018-08-30T16:02:04.129Z,17.00
2018-08-30T16:04:39.259Z,8.90
2018-08-30T16:07:14.049Z,13.40
2018-08-30T16:09:49.285Z,13.93
2018-08-30T16:12:24.165Z,15.08
2018-08-30T16:14:59.147Z,13.93
2018-08-30T16:17:33.913Z,10.30
2018-08-30T16:20:09.013Z,12.75
2018-08-30T16:22:56.669Z,9.20
2018-08-30T16:25:31.928Z,18.42
2018-08-30T16:28:07.151Z,21.60
2018-08-30T16:30:42.324Z,11.65
2018-08-30T16:33:17.424Z,10.48
2018-08-30T16:35:52.264Z,12.15
2018-08-30T16:38:27.388Z,11.28
2018-08-30T16:41:02.485Z,14.20
2018-08-30T16:43:37.428Z,14.25
2018-08-30T16:46:12.305Z,15.88
2018-08-30T16:48:47.635Z,17.12
2018-08-30T16:51:22.539Z,30.90
2018-08-30T16:53:57.528Z,12.70
2018-08-30T16:56:32.559Z,12.75
2018-08-30T16:59:07.459Z,15.10
2018-08-30T17:01:42.286Z,12.50
2018-08-30T17:04:17.136Z,14.20
2018-08-30T17:06:52.217Z,12.63
2018-08-30T17:09:27.088Z,11.12
2018-08-30T17:12:01.920Z,18.65
2018-08-30T17:14:36.880Z,16.35
2018-08-30T17:17:12.049Z,15.43
2018-08-30T17:19:46.999Z,13.80
2018-08-30T17:22:22.012Z,13.38
2018-08-30T17:24:56.745Z,14.05
2018-08-30T17:27:31.581Z,15.83
2018-08-30T17:30:07.395Z,18.30
2018-08-30T17:32:42.336Z,16.23
2018-08-30T17:35:17.237Z,12.45
2018-08-30T17:37:52.054Z,12.60
2018-08-30T17:40:26.853Z,13.78
2018-08-30T17:43:01.887Z,9.15
2018-08-30T17:45:36.835Z,10.38
2018-08-30T17:48:12.076Z,17.20
2018-08-30T17:50:47.217Z,13.83
2018-08-30T17:53:22.176Z,11.60
2018-08-30T17:55:57.125Z,9.95
2018-08-30T17:58:32.305Z,13.08
2018-08-30T18:01:07.821Z,12.20
2018-08-30T18:03:42.940Z,8.90
2018-08-30T18:06:17.856Z,17.07
2018-08-30T18:08:52.946Z,11.33
2018-08-30T18:11:27.797Z,11.10
2018-08-30T18:14:02.694Z,10.38
2018-08-30T18:16:37.465Z,13.28
2018-08-30T18:19:12.233Z,9.60
2018-08-30T18:21:46.996Z,12.95
2018-08-30T18:24:21.934Z,15.80
2018-08-30T18:26:56.797Z,14.15
2018-08-30T18:29:31.792Z,19.92
2018-08-30T18:32:06.676Z,8.73
2018-08-30T18:34:41.445Z,9.73
2018-08-30T18:37:16.404Z,13.78
2018-08-30T18:39:51.844Z,7.55
2018-08-30T18:42:26.558Z,7.37
2018-08-30T18:45:01.357Z,12.25
2018-08-30T18:47:36.656Z,18.80
2018-08-30T18:50:11.645Z,13.85
2018-08-30T18:52:46.640Z,12.73
2018-08-30T18:55:21.439Z,12.20
2018-08-30T18:57:56.085Z,13.35
2018-08-30T19:00:31.157Z,8.80
2018-08-30T19:03:06.075Z,12.25
2018-08-30T19:05:41.240Z,15.68
2018-08-30T19:08:16.224Z,9.15
2018-08-30T19:10:51.282Z,9.38
2018-08-30T19:13:26.213Z,11.60
2018-08-30T19:16:06.080Z,19.00
2018-08-30T19:18:46.384Z,10.85
2018-08-30T19:21:21.248Z,17.87
2018-08-30T19:23:56.239Z,12.58
2018-08-30T19:26:31.165Z,10.58
2018-08-30T19:29:06.306Z,16.77
2018-08-30T19:31:41.184Z,13.93
2018-08-30T19:34:16.228Z,15.88
2018-08-30T19:36:51.056Z,10.13
2018-08-30T19:39:25.976Z,13.80
2018-08-30T19:42:01.008Z,12.05
2018-08-30T19:44:35.845Z,12.20
2018-08-30T19:47:10.733Z,20.08
2018-08-30T19:49:45.572Z,10.60
2018-08-30T19:52:20.487Z,15.68
2018-08-30T19:54:55.517Z,13.15
2018-08-30T19:57:30.340Z,14.05
2018-08-30T20:00:05.601Z,13.83
2018-08-30T20:02:40.346Z,10.23
2018-08-30T20:05:15.524Z,15.65
2018-08-30T20:07:51.121Z,7.12
2018-08-30T20:10:25.996Z,13.53
2018-08-30T20:13:00.924Z,13.20
2018-08-30T20:15:35.566Z,7.97
2018-08-30T20:18:10.664Z,7.70
2018-08-30T20:20:45.673Z,9.15
2018-08-30T20:23:20.576Z,14.70
2018-08-30T20:25:55.420Z,10.43
2018-08-30T20:28:30.380Z,12.60
2018-08-30T20:31:05.087Z,7.33
2018-08-30T20:33:40.221Z,16.12
2018-08-30T20:36:14.964Z,14.45
2018-08-30T20:38:49.841Z,16.87
2018-08-30T20:41:24.980Z,5.75
2018-08-30T20:43:59.766Z,9.15
2018-08-30T20:46:34.713Z,8.30
2018-08-30T20:49:09.627Z,10.05
2018-08-30T20:51:44.400Z,16.07
2018-08-30T20:54:19.216Z,7.95
2018-08-30T20:56:54.391Z,16.37
2018-08-30T20:59:29.485Z,12.30
2018-08-30T21:02:04.201Z,11.55
2018-08-30T21:04:39.047Z,9.75
2018-08-30T21:07:13.915Z,13.55
2018-08-30T21:09:49.093Z,9.08
2018-08-30T21:12:23.742Z,9.65
2018-08-30T21:14:58.712Z,6.80
2018-08-30T21:17:33.643Z,9.43
2018-08-30T21:20:08.668Z,15.80
2018-08-30T21:22:43.832Z,16.40
2018-08-30T21:25:18.596Z,17.70
2018-08-30T21:27:53.456Z,10.93
2018-08-30T21:30:28.652Z,11.08
2018-08-30T21:33:03.413Z,8.68
2018-08-30T21:35:38.386Z,8.35
2018-08-30T21:38:13.428Z,13.45
2018-08-30T21:40:48.223Z,9.83
2018-08-30T21:43:23.256Z,15.63
2018-08-30T21:45:58.181Z,10.48
2018-08-30T21:48:33.376Z,6.12
2018-08-30T21:51:08.471Z,13.22
2018-08-30T21:53:43.230Z,6.62
2018-08-30T21:56:18.148Z,13.85
2018-08-30T21:58:52.885Z,6.83
2018-08-30T22:01:28.152Z,16.48
2018-08-30T22:04:03.762Z,10.10
2018-08-30T22:06:39.080Z,15.83
2018-08-30T22:09:14.028Z,18.30
2018-08-30T22:11:49.023Z,10.15
2018-08-30T22:14:24.035Z,16.23
2018-08-30T22:16:58.865Z,12.78
2018-08-30T22:19:33.619Z,14.40
2018-08-30T22:22:08.385Z,11.03
2018-08-30T22:24:43.497Z,8.98
2018-08-30T22:27:18.367Z,12.75
2018-08-30T22:29:53.340Z,12.33
2018-08-30T22:32:28.321Z,7.25
2018-08-30T22:35:03.548Z,13.58
2018-08-30T22:37:38.600Z,10.35
2018-08-30T22:40:13.474Z,10.35
2018-08-30T22:42:48.342Z,10.90
2018-08-30T22:45:23.549Z,12.43
2018-08-30T22:47:58.456Z,16.50
2018-08-30T22:50:33.276Z,11.80
2018-08-30T22:53:08.144Z,7.67
2018-08-30T22:55:42.965Z,7.85
2018-08-30T22:58:17.754Z,15.95
2018-08-30T23:00:52.629Z,16.57
2018-08-30T23:03:27.903Z,6.20
2018-08-30T23:06:02.912Z,11.33
2018-08-30T23:08:38.052Z,11.65
2018-08-30T23:11:13.025Z,18.77
2018-08-30T23:13:47.920Z,7.47
2018-08-30T23:16:22.964Z,15.63
2018-08-30T23:18:58.282Z,20.10
2018-08-30T23:21:33.508Z,19.23
2018-08-30T23:24:08.360Z,11.43
2018-08-30T23:26:43.069Z,12.82
2018-08-30T23:29:18.056Z,10.78
2018-08-30T23:31:53.046Z,10.35
2018-08-30T23:34:27.924Z,8.95
2018-08-30T23:37:02.821Z,18.85
2018-08-30T23:39:37.908Z,12.43
2018-08-30T23:42:13.143Z,14.90
2018-08-30T23:44:48.150Z,17.20
2018-08-30T23:47:22.891Z,11.80
2018-08-30T23:49:57.758Z,12.28
2018-08-30T23:52:32.892Z,12.70
2018-08-30T23:55:07.597Z,13.48
2018-08-30T23:57:53.565Z,10.58
